createdAt,value
2018-12-07T00:00:42.986Z,303.59
2018-12-07T00:01:42.928Z,303.38
2018-12-07T00:02:42.955Z,303.33
2018-12-07T00:03:42.866Z,303.50
2018-12-07T00:04:42.807Z,303.42
2018-12-07T00:05:42.910Z,303.38
2018-12-07T00:06:42.833Z,303.46
2018-12-07T00:07:42.792Z,303.43
2018-12-07T00:08:42.797Z,303.36
2018-12-07T00:09:42.773Z,303.60
2018-12-07T00:10:42.784Z,303.44
2018-12-07T00:11:42.801Z,303.25
2018-12-07T00:12:42.761Z,303.28
2018-12-07T00:13:42.758Z,303.50
2018-12-07T00:14:42.820Z,303.36
2018-12-07T00:15:42.758Z,303.50
2018-12-07T00:16:51.867Z,303.27
2018-12-07T00:17:57.800Z,303.66
2018-12-07T00:18:43.597Z,303.46
2018-12-07T00:19:47.928Z,303.53
2018-12-07T00:20:43.901Z,303.49
2018-12-07T00:21:42.628Z,303.46
2018-12-07T00:22:42.676Z,303.33
2018-12-07T00:23:43.378Z,303.41
2018-12-07T00:24:51.881Z,303.26
2018-12-07T00:25:42.579Z,303.31
2018-12-07T00:26:42.575Z,303.49
2018-12-07T00:27:42.558Z,303.28
2018-12-07T00:28:42.581Z,303.48
2018-12-07T00:29:42.543Z,303.35
2018-12-07T00:30:42.528Z,303.40
2018-12-07T00:31:42.521Z,303.35
2018-12-07T00:32:42.509Z,303.48
2018-12-07T00:33:42.494Z,303.56
2018-12-07T00:34:42.504Z,303.46
2018-12-07T00:35:42.953Z,303.60
2018-12-07T00:36:42.461Z,303.30
2018-12-07T00:37:42.455Z,303.35
2018-12-07T00:38:42.437Z,303.26
2018-12-07T00:39:42.437Z,303.49
2018-12-07T00:40:42.413Z,303.24
2018-12-07T00:41:42.424Z,303.42
2018-12-07T00:42:42.391Z,303.51
2018-12-07T00:43:42.390Z,303.33
2018-12-07T00:44:42.387Z,303.18
2018-12-07T00:45:42.399Z,303.52
2018-12-07T00:46:42.364Z,303.29
2018-12-07T00:47:42.356Z,303.42
2018-12-07T00:48:42.350Z,303.39
2018-12-07T00:49:42.332Z,303.29
2018-12-07T00:50:42.328Z,303.50
2018-12-07T00:51:42.312Z,303.45
2018-12-07T00:52:42.290Z,303.21
2018-12-07T00:53:42.283Z,303.39
2018-12-07T00:54:42.279Z,303.32
2018-12-07T00:55:42.270Z,303.28
2018-12-07T00:56:42.257Z,303.30
2018-12-07T00:57:42.260Z,303.42
2018-12-07T00:58:42.227Z,303.50
2018-12-07T00:59:42.214Z,303.35
2018-12-07T01:00:42.212Z,303.42
2018-12-07T01:01:42.201Z,303.31
2018-12-07T01:02:42.197Z,303.16
2018-12-07T01:03:42.191Z,303.33
2018-12-07T01:04:42.166Z,303.17
2018-12-07T01:05:42.160Z,303.27
2018-12-07T01:06:42.151Z,303.07
2018-12-07T01:07:42.147Z,303.34
2018-12-07T01:08:42.163Z,303.27
2018-12-07T01:09:42.106Z,303.22
2018-12-07T01:10:42.107Z,303.26
2018-12-07T01:11:42.091Z,303.20
2018-12-07T01:12:42.087Z,303.49
2018-12-07T01:13:42.072Z,303.37
2018-12-07T01:14:42.098Z,303.35
2018-12-07T01:15:42.058Z,303.30
2018-12-07T01:16:42.049Z,303.38
2018-12-07T01:17:42.021Z,303.58
2018-12-07T01:18:42.020Z,303.33
2018-12-07T01:19:42.006Z,303.17
2018-12-07T01:20:42.015Z,303.12
2018-12-07T01:21:41.973Z,303.22
2018-12-07T01:22:41.973Z,303.42
2018-12-07T01:23:41.959Z,303.25
2018-12-07T01:24:41.956Z,303.39
2018-12-07T01:25:41.971Z,303.24
2018-12-07T01:26:41.941Z,303.33
2018-12-07T01:27:41.967Z,303.34
2018-12-07T01:28:41.898Z,303.36
2018-12-07T01:29:41.901Z,303.24
2018-12-07T01:30:41.886Z,303.34
2018-12-07T01:31:41.878Z,303.50
2018-12-07T01:32:41.859Z,303.13
2018-12-07T01:33:41.898Z,303.52
2018-12-07T01:34:41.838Z,303.28
2018-12-07T01:35:41.828Z,303.64
2018-12-07T01:36:41.822Z,303.42
2018-12-07T01:37:41.820Z,303.32
2018-12-07T01:38:41.806Z,303.30
2018-12-07T01:39:41.799Z,303.52
2018-12-07T01:40:41.782Z,303.37
2018-12-07T01:41:41.769Z,303.30
2018-12-07T01:42:41.761Z,303.63
2018-12-07T01:43:41.738Z,303.14
2018-12-07T01:44:41.741Z,303.44
2018-12-07T01:45:41.730Z,303.24
2018-12-07T01:46:41.721Z,303.16
2018-12-07T01:47:41.714Z,303.19
2018-12-07T01:48:41.703Z,303.39
2018-12-07T01:49:41.696Z,303.33
2018-12-07T01:50:41.679Z,303.15
2018-12-07T01:51:41.683Z,303.23
2018-12-07T01:52:41.643Z,302.88
2018-12-07T01:53:41.638Z,303.26
2018-12-07T01:54:41.638Z,303.35
2018-12-07T01:55:41.623Z,303.31
2018-12-07T01:56:41.645Z,303.30
2018-12-07T01:57:41.598Z,303.43
2018-12-07T01:58:41.600Z,303.37
2018-12-07T01:59:41.589Z,303.27
2018-12-07T02:00:41.576Z,303.06
2018-12-07T02:01:41.548Z,303.32
2018-12-07T02:02:41.546Z,303.43
2018-12-07T02:03:41.530Z,303.20
2018-12-07T02:04:41.561Z,303.26
2018-12-07T02:05:41.517Z,303.22
2018-12-07T02:06:41.491Z,303.24
2018-12-07T02:07:41.524Z,303.38
2018-12-07T02:08:41.488Z,303.19
2018-12-07T02:09:41.475Z,303.17
2018-12-07T02:10:41.460Z,303.01
2018-12-07T02:11:41.440Z,303.15
2018-12-07T02:12:41.450Z,303.09
2018-12-07T02:13:41.448Z,303.29
2018-12-07T02:14:41.416Z,303.22
2018-12-07T02:15:41.411Z,303.29
2018-12-07T02:16:41.393Z,303.06
2018-12-07T02:17:41.385Z,303.38
2018-12-07T02:18:41.376Z,303.06
2018-12-07T02:19:41.389Z,303.26
2018-12-07T02:20:41.347Z,303.17
2018-12-07T02:21:41.337Z,303.07
2018-12-07T02:22:41.330Z,303.19
2018-12-07T02:23:41.323Z,303.23
2018-12-07T02:24:41.340Z,303.13
2018-12-07T02:25:41.303Z,303.35
2018-12-07T02:26:41.292Z,303.22
2018-12-07T02:27:41.294Z,303.18
2018-12-07T02:28:41.266Z,303.12
2018-12-07T02:29:41.271Z,303.04
2018-12-07T02:30:41.247Z,302.95
2018-12-07T02:31:41.242Z,303.18
2018-12-07T02:32:41.244Z,302.89
2018-12-07T02:33:41.207Z,303.10
2018-12-07T02:34:41.232Z,303.05
2018-12-07T02:35:41.193Z,303.16
2018-12-07T02:36:41.198Z,303.13
2018-12-07T02:37:41.164Z,302.96
2018-12-07T02:38:41.150Z,302.82
2018-12-07T02:39:41.143Z,302.94
2018-12-07T02:40:41.190Z,302.94
2018-12-07T02:41:41.134Z,303.10
2018-12-07T02:42:41.134Z,303.15
2018-12-07T02:43:41.114Z,303.00
2018-12-07T02:44:41.099Z,302.88
2018-12-07T02:45:41.088Z,303.10
2018-12-07T02:46:41.119Z,302.97
2018-12-07T02:47:41.069Z,302.96
2018-12-07T02:48:41.060Z,302.85
2018-12-07T02:49:41.048Z,302.98
2018-12-07T02:50:41.033Z,302.90
2018-12-07T02:51:41.018Z,302.89
2018-12-07T02:52:41.053Z,303.05
2018-12-07T02:53:41.009Z,302.83
2018-12-07T02:54:40.998Z,303.06
2018-12-07T02:55:40.967Z,303.07
2018-12-07T02:56:40.971Z,303.08
2018-12-07T02:57:40.957Z,302.90
2018-12-07T02:58:40.991Z,302.85
2018-12-07T02:59:40.934Z,303.05
2018-12-07T03:00:40.926Z,302.92
2018-12-07T03:01:40.923Z,303.07
2018-12-07T03:02:40.898Z,303.05
2018-12-07T03:03:40.897Z,303.14
2018-12-07T03:04:40.897Z,303.20
2018-12-07T03:05:40.883Z,303.18
2018-12-07T03:06:40.867Z,303.09
2018-12-07T03:07:40.857Z,303.14
2018-12-07T03:08:40.852Z,303.11
2018-12-07T03:09:40.841Z,302.94
2018-12-07T03:10:40.823Z,303.29
2018-12-07T03:11:40.807Z,303.09
2018-12-07T03:12:40.810Z,303.14
2018-12-07T03:13:40.788Z,303.11
2018-12-07T03:14:40.809Z,303.30
2018-12-07T03:15:40.757Z,303.36
2018-12-07T03:16:40.760Z,303.07
2018-12-07T03:17:40.749Z,303.46
2018-12-07T03:18:40.737Z,303.09
2018-12-07T03:19:40.729Z,303.15
2018-12-07T03:20:40.740Z,303.08
2018-12-07T03:21:40.709Z,303.22
2018-12-07T03:22:40.689Z,303.16
2018-12-07T03:23:40.676Z,303.10
2018-12-07T03:24:40.675Z,303.14
2018-12-07T03:25:40.671Z,303.38
2018-12-07T03:26:40.659Z,303.22
2018-12-07T03:27:40.648Z,303.21
2018-12-07T03:28:40.630Z,303.24
2018-12-07T03:29:40.617Z,303.32
2018-12-07T03:30:40.623Z,303.40
2018-12-07T03:31:40.595Z,303.10
2018-12-07T03:32:40.580Z,303.25
2018-12-07T03:33:40.587Z,303.27
2018-12-07T03:34:40.566Z,303.25
2018-12-07T03:35:40.587Z,303.17
2018-12-07T03:36:40.537Z,303.37
2018-12-07T03:37:40.524Z,303.15
2018-12-07T03:38:40.521Z,303.26
2018-12-07T03:39:40.515Z,303.34
2018-12-07T03:40:40.492Z,303.28
2018-12-07T03:41:40.526Z,303.25
2018-12-07T03:42:40.472Z,303.15
2018-12-07T03:43:40.492Z,303.27
2018-12-07T03:44:40.467Z,303.02
2018-12-07T03:45:40.453Z,303.30
2018-12-07T03:46:40.427Z,303.25
2018-12-07T03:47:40.432Z,303.40
2018-12-07T03:48:40.420Z,303.32
2018-12-07T03:49:40.396Z,303.15
2018-12-07T03:50:40.397Z,303.23
2018-12-07T03:51:40.377Z,303.26
2018-12-07T03:52:40.402Z,303.36
2018-12-07T03:53:40.370Z,303.19
2018-12-07T03:54:40.358Z,303.28
2018-12-07T03:55:40.333Z,303.29
2018-12-07T03:56:40.336Z,303.29
2018-12-07T03:57:40.317Z,303.21
2018-12-07T03:58:40.332Z,303.35
2018-12-07T03:59:40.296Z,303.35
2018-12-07T04:00:40.322Z,303.55
2018-12-07T04:01:40.278Z,303.26
2018-12-07T04:02:40.261Z,303.38
2018-12-07T04:03:41.784Z,303.26
2018-12-07T04:04:40.240Z,303.37
2018-12-07T04:05:40.224Z,303.27
2018-12-07T04:06:40.231Z,303.29
2018-12-07T04:07:40.232Z,303.43
2018-12-07T04:08:40.202Z,303.32
2018-12-07T04:09:40.228Z,303.22
2018-12-07T04:10:40.189Z,303.21
2018-12-07T04:11:40.160Z,303.21
2018-12-07T04:12:40.154Z,303.34
2018-12-07T04:13:40.158Z,303.20
2018-12-07T04:14:40.128Z,303.43
2018-12-07T04:15:40.137Z,303.35
2018-12-07T04:16:40.123Z,303.53
2018-12-07T04:17:40.101Z,303.20
2018-12-07T04:18:40.089Z,303.36
2018-12-07T04:19:40.079Z,303.24
2018-12-07T04:20:40.110Z,303.50
2018-12-07T04:21:40.059Z,303.52
2018-12-07T04:22:40.056Z,303.38
2018-12-07T04:23:40.053Z,303.16
2018-12-07T04:24:40.034Z,303.33
2018-12-07T04:25:40.017Z,303.38
2018-12-07T04:26:40.033Z,303.54
2018-12-07T04:27:39.997Z,303.45
2018-12-07T04:28:39.981Z,303.47
2018-12-07T04:29:39.989Z,303.48
2018-12-07T04:30:39.970Z,303.35
2018-12-07T04:31:39.996Z,303.13
2018-12-07T04:32:39.944Z,303.38
2018-12-07T04:33:39.939Z,303.19
2018-12-07T04:34:39.934Z,303.29
2018-12-07T04:35:39.908Z,303.46
2018-12-07T04:36:39.901Z,303.22
2018-12-07T04:37:39.902Z,303.19
2018-12-07T04:38:39.882Z,303.40
2018-12-07T04:39:39.865Z,303.40
2018-12-07T04:40:39.864Z,303.37
2018-12-07T04:41:39.842Z,303.38
2018-12-07T04:42:39.852Z,303.42
2018-12-07T04:43:39.838Z,303.36
2018-12-07T04:44:39.820Z,303.38
2018-12-07T04:45:39.799Z,303.25
2018-12-07T04:46:39.802Z,303.42
2018-12-07T04:47:39.807Z,303.49
2018-12-07T04:48:39.780Z,303.33
2018-12-07T04:49:39.773Z,303.29
2018-12-07T04:50:39.786Z,303.38
2018-12-07T04:51:39.759Z,303.35
2018-12-07T04:52:39.728Z,303.41
2018-12-07T04:53:39.730Z,303.37
2018-12-07T04:54:39.721Z,303.28
2018-12-07T04:55:39.704Z,303.42
2018-12-07T04:56:39.690Z,303.34
2018-12-07T04:57:39.680Z,303.43
2018-12-07T04:58:39.694Z,303.45
2018-12-07T04:59:39.656Z,303.35
2018-12-07T05:00:39.673Z,303.33
2018-12-07T05:01:39.641Z,303.52
2018-12-07T05:02:39.637Z,303.28
2018-12-07T05:03:39.609Z,303.32
2018-12-07T05:04:39.620Z,303.39
2018-12-07T05:05:39.620Z,303.42
2018-12-07T05:06:39.583Z,303.28
2018-12-07T05:07:39.589Z,303.29
2018-12-07T05:08:39.568Z,303.57
2018-12-07T05:09:39.558Z,303.49
2018-12-07T05:10:39.543Z,303.09
2018-12-07T05:11:39.556Z,303.41
2018-12-07T05:12:39.525Z,303.29
2018-12-07T05:13:39.508Z,303.61
2018-12-07T05:14:39.498Z,303.34
2018-12-07T05:15:39.521Z,303.59
2018-12-07T05:16:39.475Z,303.38
2018-12-07T05:17:39.493Z,303.41
2018-12-07T05:18:39.453Z,303.29
2018-12-07T05:19:39.443Z,303.57
2018-12-07T05:20:39.431Z,303.45
2018-12-07T05:21:39.442Z,303.32
2018-12-07T05:22:39.449Z,303.48
2018-12-07T05:23:39.419Z,303.39
2018-12-07T05:24:39.388Z,303.38
2018-12-07T05:25:39.394Z,303.46
2018-12-07T05:26:39.389Z,303.39
2018-12-07T05:27:39.360Z,303.33
2018-12-07T05:28:39.356Z,303.48
2018-12-07T05:29:39.338Z,303.39
2018-12-07T05:30:39.332Z,303.41
2018-12-07T05:31:39.316Z,303.47
2018-12-07T05:32:39.313Z,303.56
2018-12-07T05:33:39.308Z,303.36
2018-12-07T05:34:39.285Z,303.52
2018-12-07T05:35:39.280Z,303.41
2018-12-07T05:36:39.275Z,303.61
2018-12-07T05:37:39.326Z,303.59
2018-12-07T05:38:39.252Z,303.40
2018-12-07T05:39:39.268Z,303.52
2018-12-07T05:40:39.249Z,303.29
2018-12-07T05:41:39.210Z,303.54
2018-12-07T05:42:39.222Z,303.56
2018-12-07T05:43:39.854Z,303.45
2018-12-07T05:44:39.204Z,303.56
2018-12-07T05:45:40.703Z,303.60
2018-12-07T05:46:40.465Z,303.60
2018-12-07T05:47:39.165Z,303.54
2018-12-07T05:48:39.197Z,303.53
2018-12-07T05:49:39.121Z,303.33
2018-12-07T05:50:39.133Z,303.42
2018-12-07T05:51:39.953Z,303.21
2018-12-07T05:52:39.105Z,303.55
2018-12-07T05:53:39.087Z,303.38
2018-12-07T05:54:39.094Z,303.59
2018-12-07T05:55:39.057Z,303.46
2018-12-07T05:56:39.057Z,303.35
2018-12-07T05:57:39.086Z,303.56
2018-12-07T05:58:39.024Z,303.76
2018-12-07T05:59:44.486Z,303.46
2018-12-07T06:00:39.881Z,303.75
2018-12-07T06:01:40.385Z,303.58
2018-12-07T06:02:40.891Z,303.44
2018-12-07T06:03:41.202Z,303.62
2018-12-07T06:04:38.998Z,303.58
2018-12-07T06:05:39.031Z,303.42
2018-12-07T06:06:38.950Z,303.42
2018-12-07T06:07:38.966Z,303.31
2018-12-07T06:08:39.069Z,303.49
2018-12-07T06:09:38.959Z,303.47
2018-12-07T06:10:38.949Z,303.64
2018-12-07T06:11:38.910Z,303.60
2018-12-07T06:12:38.912Z,303.42
2018-12-07T06:13:38.911Z,303.62
2018-12-07T06:14:39.036Z,303.72
2018-12-07T06:15:39.508Z,303.40
2018-12-07T06:16:39.016Z,303.58
2018-12-07T06:17:40.749Z,303.38
2018-12-07T06:18:39.052Z,303.82
2018-12-07T06:19:39.030Z,303.55
2018-12-07T06:20:39.721Z,303.54
2018-12-07T06:21:39.194Z,303.54
2018-12-07T06:22:40.393Z,303.53
2018-12-07T06:23:39.069Z,303.65
2018-12-07T06:24:39.089Z,303.50
2018-12-07T06:25:38.842Z,303.56
2018-12-07T06:26:38.727Z,303.56
2018-12-07T06:27:38.798Z,303.47
2018-12-07T06:28:38.802Z,303.71
2018-12-07T06:29:38.711Z,303.80
2018-12-07T06:30:38.710Z,303.45
2018-12-07T06:31:38.772Z,303.64
2018-12-07T06:32:38.689Z,303.48
2018-12-07T06:33:38.678Z,303.57
2018-12-07T06:34:38.652Z,303.56
2018-12-07T06:35:39.031Z,303.50
2018-12-07T06:36:38.634Z,303.48
2018-12-07T06:37:38.615Z,303.56
2018-12-07T06:38:38.619Z,303.54
2018-12-07T06:39:38.618Z,303.52
2018-12-07T06:40:38.592Z,303.35
2018-12-07T06:41:38.577Z,303.72
2018-12-07T06:42:38.567Z,303.43
2018-12-07T06:43:38.556Z,303.42
2018-12-07T06:44:38.563Z,303.57
2018-12-07T06:45:38.531Z,303.59
2018-12-07T06:46:38.528Z,303.51
2018-12-07T06:47:38.512Z,303.39
2018-12-07T06:48:38.500Z,303.54
2018-12-07T06:49:38.502Z,303.48
2018-12-07T06:50:38.472Z,303.46
2018-12-07T06:51:38.506Z,303.31
2018-12-07T06:52:38.458Z,303.65
2018-12-07T06:53:38.450Z,303.88
2018-12-07T06:54:38.447Z,303.53
2018-12-07T06:55:38.435Z,303.57
2018-12-07T06:56:38.409Z,303.39
2018-12-07T06:57:38.418Z,303.53
2018-12-07T06:58:38.396Z,303.36
2018-12-07T06:59:38.396Z,303.62
2018-12-07T07:00:38.388Z,303.54
2018-12-07T07:01:38.373Z,303.53
2018-12-07T07:02:38.396Z,303.61
2018-12-07T07:03:38.333Z,303.63
2018-12-07T07:04:38.349Z,303.80
2018-12-07T07:05:38.349Z,303.41
2018-12-07T07:06:38.323Z,303.51
2018-12-07T07:07:38.298Z,303.34
2018-12-07T07:08:38.306Z,303.60
2018-12-07T07:09:38.294Z,303.44
2018-12-07T07:10:38.271Z,303.52
2018-12-07T07:11:38.277Z,303.54
2018-12-07T07:12:38.252Z,303.73
2018-12-07T07:13:38.260Z,303.71
2018-12-07T07:14:38.261Z,303.60
2018-12-07T07:15:38.216Z,303.57
2018-12-07T07:16:38.212Z,303.95
2018-12-07T07:17:38.199Z,303.50
2018-12-07T07:18:38.188Z,303.38
2018-12-07T07:19:38.191Z,303.68
2018-12-07T07:20:38.201Z,303.51
2018-12-07T07:21:38.160Z,303.59
2018-12-07T07:22:38.184Z,303.67
2018-12-07T07:23:38.136Z,303.62
2018-12-07T07:24:38.160Z,303.45
2018-12-07T07:25:38.134Z,303.51
2018-12-07T07:26:38.125Z,303.58
2018-12-07T07:27:38.097Z,303.62
2018-12-07T07:28:38.102Z,303.60
2018-12-07T07:29:38.105Z,303.39
2018-12-07T07:30:38.079Z,303.71
2018-12-07T07:31:43.347Z,303.77
2018-12-07T07:32:39.046Z,303.64
2018-12-07T07:33:38.033Z,303.59
2018-12-07T07:34:38.042Z,303.73
2018-12-07T07:35:38.006Z,303.54
2018-12-07T07:36:38.004Z,303.95
2018-12-07T07:37:37.983Z,303.48
2018-12-07T07:38:37.974Z,303.59
2018-12-07T07:39:37.992Z,303.58
2018-12-07T07:40:37.982Z,303.53
2018-12-07T07:41:37.941Z,303.55
2018-12-07T07:42:37.935Z,303.60
2018-12-07T07:43:37.969Z,303.53
2018-12-07T07:44:37.924Z,303.67
2018-12-07T07:45:37.898Z,303.48
2018-12-07T07:46:37.898Z,303.53
2018-12-07T07:47:37.886Z,303.58
2018-12-07T07:48:37.876Z,303.51
2018-12-07T07:49:37.884Z,303.46
2018-12-07T07:50:37.853Z,303.65
2018-12-07T07:51:37.866Z,303.65
2018-12-07T07:52:37.923Z,303.50
2018-12-07T07:53:37.827Z,303.43
2018-12-07T07:54:37.825Z,303.49
2018-12-07T07:55:37.823Z,303.54
2018-12-07T07:56:37.880Z,303.69
2018-12-07T07:57:37.797Z,303.40
2018-12-07T07:58:37.842Z,303.44
2018-12-07T07:59:37.839Z,303.47
2018-12-07T08:00:37.870Z,303.46
2018-12-07T08:01:37.830Z,303.41
2018-12-07T08:02:37.861Z,303.42
2018-12-07T08:03:37.873Z,303.38
2018-12-07T08:04:38.474Z,303.48
2018-12-07T08:05:38.473Z,303.42
2018-12-07T08:06:37.875Z,303.58
2018-12-07T08:07:37.701Z,303.36
2018-12-07T08:08:37.658Z,303.40
2018-12-07T08:09:37.851Z,303.62
2018-12-07T08:10:38.447Z,303.38
2018-12-07T08:11:37.746Z,303.41
2018-12-07T08:12:38.400Z,303.47
2018-12-07T08:13:37.618Z,303.48
2018-12-07T08:14:37.605Z,303.53
2018-12-07T08:15:37.578Z,303.43
2018-12-07T08:16:37.619Z,303.41
2018-12-07T08:17:37.554Z,303.49
2018-12-07T08:18:37.546Z,303.56
2018-12-07T08:19:37.557Z,303.52
2018-12-07T08:20:37.532Z,303.63
2018-12-07T08:21:37.534Z,303.52
2018-12-07T08:22:37.519Z,303.59
2018-12-07T08:23:37.518Z,303.60
2018-12-07T08:24:37.503Z,303.39
2018-12-07T08:25:37.469Z,303.48
2018-12-07T08:26:37.486Z,303.42
2018-12-07T08:27:37.460Z,303.37
2018-12-07T08:28:37.453Z,303.46
2018-12-07T08:29:37.475Z,303.51
2018-12-07T08:30:37.445Z,303.55
2018-12-07T08:31:37.417Z,303.51
2018-12-07T08:32:37.406Z,303.58
2018-12-07T08:33:37.397Z,303.49
2018-12-07T08:34:37.430Z,303.51
2018-12-07T08:35:37.365Z,303.55
2018-12-07T08:36:37.359Z,303.68
2018-12-07T08:37:37.367Z,303.47
2018-12-07T08:38:37.362Z,303.42
2018-12-07T08:39:37.336Z,303.54
2018-12-07T08:40:37.371Z,303.60
2018-12-07T08:41:37.310Z,303.45
2018-12-07T08:42:37.307Z,303.60
2018-12-07T08:43:37.285Z,303.67
2018-12-07T08:44:37.299Z,303.44
2018-12-07T08:45:37.268Z,303.56
2018-12-07T08:46:37.272Z,303.62
2018-12-07T08:47:37.246Z,303.69
2018-12-07T08:48:37.245Z,303.46
2018-12-07T08:49:37.265Z,303.55
2018-12-07T08:50:37.211Z,303.51
2018-12-07T08:51:37.207Z,303.52
2018-12-07T08:52:37.201Z,303.61
2018-12-07T08:53:37.176Z,303.71
2018-12-07T08:54:37.170Z,303.78
2018-12-07T08:55:37.184Z,303.70
2018-12-07T08:56:37.190Z,303.75
2018-12-07T08:57:37.156Z,303.42
2018-12-07T08:58:37.147Z,303.52
2018-12-07T08:59:37.113Z,303.49
2018-12-07T09:00:37.203Z,303.50
2018-12-07T09:01:38.075Z,303.58
2018-12-07T09:02:37.077Z,303.58
2018-12-07T09:03:37.076Z,303.72
2018-12-07T09:04:37.068Z,303.54
2018-12-07T09:05:37.051Z,303.62
2018-12-07T09:06:37.100Z,303.64
2018-12-07T09:07:37.040Z,303.58
2018-12-07T09:08:37.033Z,303.54
2018-12-07T09:09:37.028Z,303.45
2018-12-07T09:10:37.017Z,303.65
2018-12-07T09:11:37.004Z,303.59
2018-12-07T09:12:37.004Z,303.60
2018-12-07T09:13:36.983Z,303.62
2018-12-07T09:14:36.977Z,303.65
2018-12-07T09:15:36.967Z,303.33
2018-12-07T09:16:36.948Z,303.47
2018-12-07T09:17:36.950Z,303.72
2018-12-07T09:18:36.923Z,303.51
2018-12-07T09:19:36.929Z,303.53
2018-12-07T09:20:36.922Z,303.39
2018-12-07T09:21:36.909Z,303.47
2018-12-07T09:22:36.953Z,303.53
2018-12-07T09:23:36.876Z,303.66
2018-12-07T09:24:36.855Z,303.62
2018-12-07T09:25:36.848Z,303.68
2018-12-07T09:26:36.836Z,303.70
2018-12-07T09:27:36.823Z,303.94
2018-12-07T09:28:36.850Z,303.61
2018-12-07T09:29:36.799Z,303.62
2018-12-07T09:30:36.798Z,303.79
2018-12-07T09:31:36.796Z,303.72
2018-12-07T09:32:36.779Z,303.67
2018-12-07T09:33:36.791Z,303.63
2018-12-07T09:34:36.767Z,303.68
2018-12-07T09:35:36.743Z,303.70
2018-12-07T09:36:36.753Z,303.47
2018-12-07T09:37:36.768Z,303.69
2018-12-07T09:38:36.737Z,303.72
2018-12-07T09:39:36.732Z,303.65
2018-12-07T09:40:36.694Z,303.57
2018-12-07T09:41:36.699Z,303.60
2018-12-07T09:42:36.680Z,303.65
2018-12-07T09:43:36.663Z,303.51
2018-12-07T09:44:36.676Z,303.61
2018-12-07T09:45:36.652Z,303.75
2018-12-07T09:46:36.634Z,303.41
2018-12-07T09:47:36.637Z,303.50
2018-12-07T09:48:36.629Z,303.50
2018-12-07T09:49:36.634Z,303.73
2018-12-07T09:50:36.624Z,303.61
2018-12-07T09:51:36.595Z,303.56
2018-12-07T09:52:36.560Z,303.62
2018-12-07T09:53:36.559Z,303.42
2018-12-07T09:54:36.537Z,303.68
2018-12-07T09:55:36.537Z,303.52
2018-12-07T09:56:36.535Z,303.50
2018-12-07T09:57:36.532Z,303.48
2018-12-07T09:58:36.514Z,303.47
2018-12-07T09:59:36.490Z,303.57
2018-12-07T10:00:36.498Z,303.50
2018-12-07T10:01:36.524Z,303.54
2018-12-07T10:02:36.483Z,303.58
2018-12-07T10:03:36.438Z,303.59
2018-12-07T10:04:36.427Z,303.43
2018-12-07T10:05:36.431Z,303.47
2018-12-07T10:06:36.414Z,303.62
2018-12-07T10:07:36.434Z,303.34
2018-12-07T10:08:36.395Z,303.55
2018-12-07T10:09:36.428Z,303.39
2018-12-07T10:10:36.378Z,303.53
2018-12-07T10:11:36.365Z,303.54
2018-12-07T10:12:36.395Z,303.67
2018-12-07T10:13:36.472Z,303.46
2018-12-07T10:14:36.356Z,303.59
2018-12-07T10:15:36.346Z,303.40
2018-12-07T10:16:36.337Z,303.65
2018-12-07T10:17:36.358Z,303.56
2018-12-07T10:18:36.302Z,303.62
2018-12-07T10:19:36.373Z,303.26
2018-12-07T10:20:36.272Z,303.61
2018-12-07T10:21:36.279Z,303.55
2018-12-07T10:22:37.832Z,303.51
2018-12-07T10:23:36.236Z,303.65
2018-12-07T10:24:36.233Z,303.75
2018-12-07T10:25:36.252Z,303.63
2018-12-07T10:26:36.217Z,303.59
2018-12-07T10:27:36.217Z,303.80
2018-12-07T10:28:36.190Z,303.54
2018-12-07T10:29:36.162Z,303.85
2018-12-07T10:30:36.177Z,303.56
2018-12-07T10:31:36.157Z,303.43
2018-12-07T10:32:36.136Z,303.82
2018-12-07T10:33:36.128Z,303.88
2018-12-07T10:34:36.112Z,303.69
2018-12-07T10:35:36.128Z,303.58
2018-12-07T10:36:36.133Z,303.69
2018-12-07T10:37:36.093Z,303.34
2018-12-07T10:38:36.080Z,303.59
2018-12-07T10:39:36.068Z,303.65
2018-12-07T10:40:36.094Z,303.51
2018-12-07T10:41:36.047Z,303.40
2018-12-07T10:42:36.069Z,303.52
2018-12-07T10:43:36.035Z,303.66
2018-12-07T10:44:36.018Z,303.45
2018-12-07T10:45:35.998Z,303.59
2018-12-07T10:46:35.977Z,303.52
2018-12-07T10:47:35.977Z,303.61
2018-12-07T10:48:35.998Z,303.54
2018-12-07T10:49:35.967Z,303.59
2018-12-07T10:50:35.940Z,303.79
2018-12-07T10:51:35.939Z,303.28
2018-12-07T10:52:35.933Z,303.48
2018-12-07T10:53:35.918Z,303.55
2018-12-07T10:54:35.900Z,303.43
2018-12-07T10:55:35.902Z,303.48
2018-12-07T10:56:35.909Z,303.47
2018-12-07T10:57:35.870Z,303.53
2018-12-07T10:58:35.906Z,303.34
2018-12-07T10:59:35.863Z,303.54
2018-12-07T11:00:35.884Z,303.48
2018-12-07T11:01:35.835Z,303.22
2018-12-07T11:02:35.829Z,303.55
2018-12-07T11:03:35.810Z,303.24
2018-12-07T11:04:35.826Z,303.30
2018-12-07T11:05:35.798Z,303.36
2018-12-07T11:06:35.765Z,303.36
2018-12-07T11:07:35.758Z,303.54
2018-12-07T11:08:35.777Z,303.45
2018-12-07T11:09:35.742Z,303.51
2018-12-07T11:10:35.740Z,303.37
2018-12-07T11:11:35.725Z,303.24
2018-12-07T11:12:35.745Z,303.55
2018-12-07T11:13:35.685Z,303.48
2018-12-07T11:14:35.710Z,303.06
2018-12-07T11:15:35.688Z,303.39
2018-12-07T11:16:35.676Z,303.54
2018-12-07T11:17:35.672Z,303.46
2018-12-07T11:18:35.663Z,303.31
2018-12-07T11:19:35.631Z,303.39
2018-12-07T11:20:35.655Z,303.39
2018-12-07T11:21:35.618Z,303.38
2018-12-07T11:22:35.647Z,303.33
2018-12-07T11:23:35.668Z,303.56
2018-12-07T11:24:35.633Z,303.62
2018-12-07T11:25:35.605Z,303.48
2018-12-07T11:26:35.563Z,303.44
2018-12-07T11:27:35.546Z,303.66
2018-12-07T11:28:35.537Z,303.51
2018-12-07T11:29:35.522Z,303.39
2018-12-07T11:30:35.562Z,303.42
2018-12-07T11:31:35.501Z,303.43
2018-12-07T11:32:35.482Z,303.42
2018-12-07T11:33:35.485Z,303.65
2018-12-07T11:34:35.478Z,303.44
2018-12-07T11:35:35.459Z,303.46
2018-12-07T11:36:35.492Z,303.41
2018-12-07T11:37:35.438Z,303.34
2018-12-07T11:38:35.438Z,303.71
2018-12-07T11:39:35.421Z,303.52
2018-12-07T11:40:35.410Z,303.51
2018-12-07T11:41:35.401Z,303.35
2018-12-07T11:42:35.432Z,303.47
2018-12-07T11:43:35.368Z,303.38
2018-12-07T11:44:36.610Z,303.19
2018-12-07T11:45:35.355Z,303.58
2018-12-07T11:46:35.347Z,303.40
2018-12-07T11:47:35.337Z,303.41
2018-12-07T11:48:35.360Z,303.39
2018-12-07T11:49:35.307Z,303.37
2018-12-07T11:50:35.303Z,303.42
2018-12-07T11:51:35.306Z,303.42
2018-12-07T11:52:35.303Z,303.43
2018-12-07T11:53:35.272Z,303.28
2018-12-07T11:54:35.290Z,303.32
2018-12-07T11:55:35.261Z,303.19
2018-12-07T11:56:35.238Z,303.12
2018-12-07T11:57:35.245Z,303.19
2018-12-07T11:58:35.223Z,303.18
2018-12-07T11:59:35.211Z,303.10
2018-12-07T12:00:35.207Z,303.19
2018-12-07T12:01:35.196Z,303.45
2018-12-07T12:02:35.175Z,303.19
2018-12-07T12:03:35.156Z,303.38
2018-12-07T12:04:35.151Z,302.96
2018-12-07T12:05:35.140Z,303.11
2018-12-07T12:06:35.123Z,303.09
2018-12-07T12:07:35.137Z,303.27
2018-12-07T12:08:35.119Z,303.09
2018-12-07T12:09:35.092Z,303.23
2018-12-07T12:10:35.098Z,303.20
2018-12-07T12:11:35.077Z,303.08
2018-12-07T12:12:35.066Z,303.31
2018-12-07T12:13:35.067Z,303.32
2018-12-07T12:14:35.057Z,303.23
2018-12-07T12:15:36.002Z,303.09
2018-12-07T12:16:35.038Z,303.02
2018-12-07T12:17:35.021Z,303.18
2018-12-07T12:18:35.022Z,303.13
2018-12-07T12:19:35.005Z,303.12
2018-12-07T12:20:35.010Z,303.03
2018-12-07T12:21:35.026Z,303.04
2018-12-07T12:22:35.017Z,303.05
2018-12-07T12:23:34.963Z,303.00
2018-12-07T12:24:34.984Z,303.11
2018-12-07T12:25:35.948Z,302.87
2018-12-07T12:26:34.931Z,302.98
2018-12-07T12:27:34.935Z,303.10
2018-12-07T12:28:34.918Z,302.93